Time;durP1;ratioP1;P1;durP2;ratioP2;P2;SDS_P1;SDS_P2;PMS_P1;PMS_P2;Temp;Humidity;BMP_temperature;BMP_pressure;BME280_temperature;BME280_humidity;BME280_pressure;Samples;Min_cycle;Max_cycle;Signal;HPM_P1;HPM_P2
2022/03/24 00:02:21;;;;;;;;;1.00;1.00;19.70;99.90;;;;;;5070496;28;8843;-47
2022/03/24 00:04:52;;;;;;;;;2.00;2.00;19.60;99.90;;;;;;5075327;28;9367;-45
2022/03/24 00:07:23;;;;;;;;;1.33;1.33;19.60;99.90;;;;;;5071382;28;9823;-46
2022/03/24 00:09:53;;;;;;;;;1.00;1.00;19.60;99.90;;;;;;5072870;28;9582;-47
2022/03/24 00:12:25;;;;;;;;;1.00;1.00;19.60;99.90;;;;;;5071380;28;9795;-45
2022/03/24 00:14:55;;;;;;;;;2.67;1.00;19.60;99.90;;;;;;5075565;28;8940;-45
2022/03/24 00:17:25;;;;;;;;;1.00;1.00;19.50;99.90;;;;;;5067648;28;9143;-48
2022/03/24 00:19:56;;;;;;;;;1.00;1.00;19.50;99.90;;;;;;5071576;28;9021;-47
2022/03/24 00:22:26;;;;;;;;;2.00;2.00;19.40;99.90;;;;;;5068652;28;9008;-46
2022/03/24 00:24:58;;;;;;;;;2.33;2.33;19.40;99.90;;;;;;5069580;28;9071;-43
2022/03/24 00:27:28;;;;;;;;;1.00;1.00;19.40;99.90;;;;;;5071040;28;10186;-48
2022/03/24 00:29:58;;;;;;;;;2.00;2.00;19.40;99.90;;;;;;5069369;28;9086;-49
2022/03/24 00:32:29;;;;;;;;;2.00;2.00;19.30;99.90;;;;;;5072458;28;9194;-46
2022/03/24 00:35:00;;;;;;;;;1.33;1.33;19.30;99.90;;;;;;5072055;28;9069;-47
2022/03/24 00:37:32;;;;;;;;;1.00;1.00;19.30;99.90;;;;;;5064550;28;9463;-46
2022/03/24 00:40:07;;;;;;;;;4.33;1.00;19.20;99.90;;;;;;5081672;28;9226;-44
2022/03/24 00:42:38;;;;;;;;;1.00;1.00;19.10;99.90;;;;;;5069057;28;9390;-46
2022/03/24 00:45:12;;;;;;;;;1.00;1.00;19.10;99.90;;;;;;5068763;28;9168;-44
2022/03/24 00:47:44;;;;;;;;;1.00;1.00;19.10;99.90;;;;;;5072566;28;9283;-44
2022/03/24 00:50:15;;;;;;;;;2.00;2.00;19.10;99.90;;;;;;5069748;28;9927;-45
2022/03/24 00:52:45;;;;;;;;;1.00;1.00;19.10;99.90;;;;;;5076287;28;10139;-45
2022/03/24 00:55:20;;;;;;;;;3.00;3.00;19.00;99.90;;;;;;5074679;28;9367;-45
2022/03/24 00:57:55;;;;;;;;;2.00;2.00;19.00;99.90;;;;;;5076625;28;10494;-45
2022/03/24 01:00:26;;;;;;;;;2.00;2.00;19.00;99.90;;;;;;5069216;28;9312;-46
2022/03/24 01:02:57;;;;;;;;;2.67;2.67;19.00;99.90;;;;;;5067386;28;9592;-44
2022/03/24 01:05:29;;;;;;;;;2.00;2.00;19.00;99.90;;;;;;5058297;28;9628;-44
2022/03/24 01:08:01;;;;;;;;;2.67;2.67;19.00;99.90;;;;;;5085968;28;9664;-43
2022/03/24 01:10:32;;;;;;;;;1.33;1.33;19.00;99.90;;;;;;5079291;28;9293;-48
2022/03/24 01:13:04;;;;;;;;;3.33;2.00;18.90;99.90;;;;;;5085539;28;9462;-45
2022/03/24 01:15:36;;;;;;;;;4.33;1.67;18.90;99.90;;;;;;5085947;28;9401;-46
2022/03/24 01:18:07;;;;;;;;;2.00;2.00;18.90;99.90;;;;;;5074204;28;9552;-45
2022/03/24 01:20:39;;;;;;;;;2.00;1.00;18.90;99.90;;;;;;5077733;28;9450;-43
2022/03/24 01:23:11;;;;;;;;;1.67;1.67;18.90;99.90;;;;;;5083179;28;9542;-48
2022/03/24 01:25:42;;;;;;;;;2.00;2.00;18.90;99.90;;;;;;5076757;28;9441;-45
2022/03/24 01:28:13;;;;;;;;;2.75;2.75;18.90;99.90;;;;;;5075117;28;9436;-45
2022/03/24 01:30:46;;;;;;;;;1.33;1.00;18.90;99.90;;;;;;5057486;28;9678;-47
2022/03/24 01:33:17;;;;;;;;;2.00;2.00;18.90;99.90;;;;;;5077358;28;9663;-43
2022/03/24 01:35:49;;;;;;;;;3.50;2.00;18.90;99.90;;;;;;5070706;28;9535;-45
2022/03/24 01:38:21;;;;;;;;;2.00;2.00;18.90;99.90;;;;;;5077096;28;9715;-44
2022/03/24 01:40:53;;;;;;;;;1.67;1.67;18.80;99.90;;;;;;5074370;28;9692;-48
2022/03/24 01:43:24;;;;;;;;;1.67;1.67;18.80;99.90;;;;;;5074266;28;9573;-46
2022/03/24 01:45:55;;;;;;;;;2.00;2.00;18.80;99.90;;;;;;5083208;28;9542;-44
2022/03/24 01:48:30;;;;;;;;;2.00;2.00;18.70;99.90;;;;;;5076837;28;9674;-43
2022/03/24 01:51:00;;;;;;;;;1.33;1.33;18.60;99.90;;;;;;5075557;28;9616;-44
2022/03/24 01:53:32;;;;;;;;;1.00;1.00;18.50;99.90;;;;;;5075929;28;9401;-48
2022/03/24 01:56:07;;;;;;;;;1.00;1.00;18.50;99.90;;;;;;5072254;28;9657;-44
2022/03/24 01:58:39;;;;;;;;;1.67;1.67;18.40;99.90;;;;;;5075875;28;9620;-48
2022/03/24 02:01:36;;;;;;;;;2.75;2.75;18.40;99.90;;;;;;5068139;28;9631;-47
2022/03/24 02:04:09;;;;;;;;;3.00;2.00;18.40;99.90;;;;;;5071089;28;9794;-44
2022/03/24 02:06:40;;;;;;;;;3.00;1.75;18.30;99.90;;;;;;5066515;27;9704;-45
2022/03/24 02:09:13;;;;;;;;;2.00;2.00;18.30;99.90;;;;;;5075315;28;9710;-47
2022/03/24 02:11:45;;;;;;;;;1.00;1.00;18.30;99.90;;;;;;5072709;28;9776;-44
2022/03/24 02:14:19;;;;;;;;;1.00;1.00;18.20;99.90;;;;;;5073876;28;9684;-44
2022/03/24 02:16:50;;;;;;;;;4.00;3.00;18.20;99.90;;;;;;5065496;28;9834;-45
2022/03/24 02:19:24;;;;;;;;;3.50;1.75;18.10;99.90;;;;;;5065564;28;10045;-46
2022/03/24 02:22:07;;;;;;;;;2.75;0.75;17.90;99.90;;;;;;5065552;28;9784;-44
2022/03/24 02:24:38;;;;;;;;;6.00;1.75;18.00;99.90;;;;;;5074097;28;10778;-47
2022/03/24 02:27:11;;;;;;;;;1.50;1.50;18.00;99.90;;;;;;5071992;28;9789;-46
2022/03/24 02:29:42;;;;;;;;;3.75;1.50;18.00;99.90;;;;;;5081275;28;9771;-44
2022/03/24 02:32:22;;;;;;;;;1.50;1.50;18.00;99.90;;;;;;5066907;28;9996;-43
2022/03/24 02:34:52;;;;;;;;;2.00;2.00;17.90;99.90;;;;;;5070632;28;9991;-44
2022/03/24 02:37:25;;;;;;;;;1.25;1.25;17.90;99.90;;;;;;5071274;27;10169;-43
2022/03/24 02:40:01;;;;;;;;;3.00;1.00;17.90;99.90;;;;;;5081166;28;9872;-43
2022/03/24 02:42:32;;;;;;;;;2.00;2.00;17.90;99.90;;;;;;5078704;28;9844;-45
2022/03/24 02:45:06;;;;;;;;;1.00;1.00;17.80;99.90;;;;;;5078602;28;9902;-43
2022/03/24 02:47:37;;;;;;;;;1.00;1.00;17.80;99.90;;;;;;5063809;28;10031;-46
2022/03/24 02:50:09;;;;;;;;;4.50;1.75;17.70;99.90;;;;;;5073418;28;11076;-44
2022/03/24 02:52:39;;;;;;;;;2.75;1.50;17.70;99.90;;;;;;5067475;28;10626;-48
2022/03/24 02:55:11;;;;;;;;;1.00;1.00;17.70;99.90;;;;;;5071694;28;10521;-46
2022/03/24 02:57:42;;;;;;;;;2.25;2.25;17.70;99.90;;;;;;5066032;28;10114;-43
2022/03/24 03:00:13;;;;;;;;;1.75;0.75;17.70;99.90;;;;;;5070420;28;10152;-46
2022/03/24 03:02:44;;;;;;;;;1.00;1.00;17.60;99.90;;;;;;5076244;28;9902;-45
2022/03/24 03:05:15;;;;;;;;;2.00;1.00;17.60;99.90;;;;;;5073506;28;10027;-47
2022/03/24 03:07:46;;;;;;;;;3.00;1.00;17.50;99.90;;;;;;5068357;28;10187;-44
2022/03/24 03:10:18;;;;;;;;;2.25;1.00;17.60;99.90;;;;;;5069192;28;10102;-45
2022/03/24 03:12:49;;;;;;;;;3.00;2.00;17.60;99.90;;;;;;5089256;28;10202;-46
2022/03/24 03:15:19;;;;;;;;;2.00;2.00;17.40;99.90;;;;;;5074505;28;10225;-46
2022/03/24 03:17:49;;;;;;;;;2.50;2.50;17.40;99.90;;;;;;5064525;28;11104;-45
2022/03/24 03:20:19;;;;;;;;;4.00;4.00;17.40;99.90;;;;;;5073198;28;10325;-46
2022/03/24 03:22:50;;;;;;;;;3.50;3.00;17.40;99.90;;;;;;5071782;28;10539;-45
2022/03/24 03:25:22;;;;;;;;;6.00;4.50;17.30;99.90;;;;;;5077847;28;10501;-44
2022/03/24 03:27:53;;;;;;;;;6.25;4.75;17.30;99.90;;;;;;5070404;28;10452;-47
2022/03/24 03:30:23;;;;;;;;;5.50;4.50;17.30;99.90;;;;;;5069501;28;10608;-44
2022/03/24 03:32:53;;;;;;;;;6.25;5.25;17.30;99.90;;;;;;5074385;28;11261;-45
2022/03/24 03:35:25;;;;;;;;;5.25;4.75;17.30;99.90;;;;;;5069344;28;10720;-43
2022/03/24 03:37:55;;;;;;;;;8.75;7.50;17.30;99.90;;;;;;5068992;28;11057;-44
2022/03/24 03:40:26;;;;;;;;;7.75;7.75;17.20;99.90;;;;;;5074505;28;10824;-45
2022/03/24 03:42:57;;;;;;;;;9.75;9.25;17.20;99.90;;;;;;5070352;28;10839;-47
2022/03/24 03:45:28;;;;;;;;;10.25;10.25;17.20;99.90;;;;;;5069678;28;11936;-46
2022/03/24 03:47:58;;;;;;;;;12.75;12.25;17.10;99.90;;;;;;5072509;28;10642;-43
2022/03/24 03:50:29;;;;;;;;;15.25;15.25;17.10;99.90;;;;;;5074715;27;10672;-48
2022/03/24 03:53:02;;;;;;;;;16.75;16.75;17.10;99.90;;;;;;5077390;28;10889;-44
2022/03/24 03:55:32;;;;;;;;;18.00;16.50;17.10;99.90;;;;;;5077707;28;10919;-45
2022/03/24 03:58:07;;;;;;;;;12.75;12.25;17.10;99.90;;;;;;5068432;28;11180;-44
2022/03/24 04:00:53;;;;;;;;;9.25;9.25;17.00;99.90;;;;;;5079568;28;11031;-43
2022/03/24 04:03:29;;;;;;;;;2.00;2.00;17.00;99.90;;;;;;5079857;28;10780;-43
2022/03/24 04:06:08;;;;;;;;;4.75;4.25;17.00;99.90;;;;;;5091927;28;10777;-45
2022/03/24 04:08:42;;;;;;;;;2.25;2.25;16.90;99.90;;;;;;5072209;28;10708;-48
2022/03/24 04:11:13;;;;;;;;;2.75;2.75;16.90;99.90;;;;;;5075180;28;10454;-44
2022/03/24 04:13:46;;;;;;;;;3.00;2.00;16.90;99.90;;;;;;5066705;28;11164;-47
2022/03/24 04:16:16;;;;;;;;;2.00;2.00;16.80;99.90;;;;;;5079772;28;10348;-43
2022/03/24 04:18:47;;;;;;;;;3.75;2.75;16.80;99.90;;;;;;5072073;28;10286;-44
2022/03/24 04:21:18;;;;;;;;;2.50;2.50;16.80;99.90;;;;;;5074036;28;10406;-45
2022/03/24 04:23:49;;;;;;;;;3.50;3.50;16.70;99.90;;;;;;5074838;28;10199;-43
2022/03/24 04:26:19;;;;;;;;;2.00;2.00;16.70;99.90;;;;;;5072421;28;10373;-44
2022/03/24 04:28:49;;;;;;;;;5.00;3.50;16.70;99.90;;;;;;5078204;28;10930;-44
2022/03/24 04:31:20;;;;;;;;;5.00;3.00;16.70;99.90;;;;;;5072950;28;10325;-44
2022/03/24 04:33:53;;;;;;;;;2.25;2.25;16.70;99.90;;;;;;5078330;28;10294;-46
2022/03/24 04:36:23;;;;;;;;;4.25;4.25;16.70;99.90;;;;;;5068798;28;10318;-47
2022/03/24 04:38:54;;;;;;;;;2.25;2.25;16.60;99.90;;;;;;5074355;28;10477;-43
2022/03/24 04:41:24;;;;;;;;;1.25;1.25;16.60;99.90;;;;;;5070838;28;11150;-45
2022/03/24 04:43:55;;;;;;;;;2.25;2.25;16.60;99.90;;;;;;5073306;28;10464;-47
2022/03/24 04:46:26;;;;;;;;;4.00;3.00;16.50;99.90;;;;;;5069988;28;10188;-46
2022/03/24 04:48:56;;;;;;;;;3.25;3.25;16.50;99.90;;;;;;5074840;28;10541;-44
2022/03/24 04:51:27;;;;;;;;;3.75;3.25;16.50;99.90;;;;;;5072918;28;10655;-44
2022/03/24 04:53:57;;;;;;;;;2.50;2.50;16.50;99.90;;;;;;5080574;28;10459;-45
2022/03/24 04:56:28;;;;;;;;;1.75;1.75;16.40;99.90;;;;;;5072353;28;9987;-43
2022/03/24 04:59:01;;;;;;;;;1.50;1.50;16.50;99.90;;;;;;5071073;28;10353;-45
2022/03/24 05:01:32;;;;;;;;;3.25;1.50;16.40;99.90;;;;;;5067063;28;10298;-44
2022/03/24 05:04:04;;;;;;;;;3.00;3.00;16.30;99.90;;;;;;5073008;28;10515;-44
2022/03/24 05:06:35;;;;;;;;;2.00;2.00;16.30;99.90;;;;;;5069053;28;10531;-47
2022/03/24 05:09:06;;;;;;;;;2.75;2.00;16.30;99.90;;;;;;5076589;28;10573;-44
2022/03/24 05:11:38;;;;;;;;;3.75;2.50;16.30;99.90;;;;;;5073475;28;10635;-42
2022/03/24 05:14:08;;;;;;;;;3.00;2.00;16.30;99.90;;;;;;5076641;28;11388;-45
2022/03/24 05:16:39;;;;;;;;;2.00;2.00;16.20;99.90;;;;;;5070418;28;10532;-49
2022/03/24 05:19:09;;;;;;;;;3.00;3.00;16.20;99.90;;;;;;5075212;28;10595;-43
2022/03/24 05:21:40;;;;;;;;;3.00;3.00;16.20;99.90;;;;;;5078868;28;10743;-45
2022/03/24 05:24:09;;;;;;;;;1.50;1.00;16.10;99.90;;;;;;5070239;28;10644;-43
2022/03/24 05:26:41;;;;;;;;;2.75;2.75;16.10;99.90;;;;;;5074376;28;10519;-46
2022/03/24 05:29:12;;;;;;;;;3.50;3.50;16.10;99.90;;;;;;5074796;28;11349;-45
2022/03/24 05:31:42;;;;;;;;;2.00;1.00;16.10;99.90;;;;;;5082773;28;11216;-46
2022/03/24 05:34:13;;;;;;;;;4.00;2.75;16.00;99.90;;;;;;5073120;28;10659;-46
2022/03/24 05:36:45;;;;;;;;;2.75;2.75;16.00;99.90;;;;;;5076938;28;10569;-46
2022/03/24 05:39:15;;;;;;;;;3.25;3.25;16.00;99.90;;;;;;5072303;28;10697;-47
2022/03/24 05:41:45;;;;;;;;;3.00;3.00;15.90;99.90;;;;;;5075217;27;10593;-43
2022/03/24 05:44:16;;;;;;;;;3.00;2.50;15.90;99.90;;;;;;5062775;28;11391;-49
2022/03/24 05:46:49;;;;;;;;;6.25;4.75;15.90;99.90;;;;;;5080104;28;11577;-49
2022/03/24 05:49:21;;;;;;;;;3.75;3.25;15.90;99.90;;;;;;5070941;28;10895;-45
2022/03/24 05:51:57;;;;;;;;;2.00;2.00;15.80;99.90;;;;;;5086418;28;10951;-45
2022/03/24 05:54:28;;;;;;;;;6.25;3.00;15.80;99.90;;;;;;5075951;28;12519;-45
2022/03/24 05:56:58;;;;;;;;;4.25;4.25;15.80;99.90;;;;;;5082721;28;10640;-44
2022/03/24 05:59:29;;;;;;;;;3.25;3.00;15.70;99.90;;;;;;5072333;28;10730;-47
2022/03/24 06:02:00;;;;;;;;;4.00;3.00;15.70;99.90;;;;;;5075030;28;11190;-43
2022/03/24 06:04:31;;;;;;;;;2.75;2.75;15.70;99.90;;;;;;5076293;28;10617;-43
2022/03/24 06:07:02;;;;;;;;;4.25;2.75;15.70;99.90;;;;;;5080744;28;10735;-43
2022/03/24 06:09:34;;;;;;;;;4.50;2.50;15.70;99.90;;;;;;5074514;28;10710;-43
2022/03/24 06:12:10;;;;;;;;;3.00;3.00;15.60;99.90;;;;;;5079196;28;10778;-43
2022/03/24 06:14:41;;;;;;;;;3.00;3.00;15.60;99.90;;;;;;5081597;28;10577;-45
2022/03/24 06:17:11;;;;;;;;;3.25;3.25;15.60;99.90;;;;;;5077198;28;10772;-49
2022/03/24 06:19:43;;;;;;;;;2.00;2.00;15.60;99.90;;;;;;5074493;28;11264;-46
2022/03/24 06:22:15;;;;;;;;;4.00;4.00;15.50;99.90;;;;;;5077101;28;10814;-43
2022/03/24 06:24:46;;;;;;;;;4.00;3.50;15.50;99.90;;;;;;5088611;28;11005;-43
2022/03/24 06:27:18;;;;;;;;;3.25;3.25;15.50;99.90;;;;;;5077839;28;10981;-43
2022/03/24 06:29:48;;;;;;;;;4.75;4.75;15.50;99.90;;;;;;5076432;28;10848;-44
2022/03/24 06:32:20;;;;;;;;;4.00;3.00;15.50;99.90;;;;;;5070972;28;11642;-45
2022/03/24 06:34:52;;;;;;;;;3.00;3.00;15.40;99.90;;;;;;5076760;28;10968;-43
2022/03/24 06:37:22;;;;;;;;;4.50;4.00;15.40;99.90;;;;;;5066460;28;10909;-42
2022/03/24 06:39:52;;;;;;;;;3.50;3.50;15.40;99.90;;;;;;5077051;28;11070;-44
2022/03/24 06:42:23;;;;;;;;;6.00;4.25;15.40;99.90;;;;;;5074537;28;10976;-45
2022/03/24 06:44:55;;;;;;;;;1.50;1.50;15.30;99.90;;;;;;5073039;28;10900;-47
2022/03/24 06:47:25;;;;;;;;;3.25;3.00;15.30;99.90;;;;;;5076832;28;10906;-43
2022/03/24 06:49:56;;;;;;;;;2.00;2.00;15.30;99.90;;;;;;5076636;28;11010;-44
2022/03/24 06:52:26;;;;;;;;;6.00;2.50;15.30;99.90;;;;;;5069354;28;11032;-48
2022/03/24 06:54:55;;;;;;;;;6.50;5.25;15.20;99.90;;;;;;5079771;28;10940;-45
2022/03/24 06:57:26;;;;;;;;;7.75;6.00;15.30;99.90;;;;;;5078731;28;11173;-45
2022/03/24 06:59:57;;;;;;;;;5.50;5.50;15.20;99.90;;;;;;5071098;28;11231;-42
2022/03/24 07:02:27;;;;;;;;;6.00;6.00;15.20;99.90;;;;;;5075698;28;12022;-44
2022/03/24 07:04:57;;;;;;;;;3.50;3.50;15.20;99.90;;;;;;5071551;28;11064;-45
2022/03/24 07:07:30;;;;;;;;;4.25;4.25;15.10;99.90;;;;;;5073713;28;11072;-44
2022/03/24 07:10:01;;;;;;;;;6.25;6.25;15.10;99.90;;;;;;5077187;28;10985;-46
2022/03/24 07:12:32;;;;;;;;;6.00;4.75;15.20;99.90;;;;;;5076001;28;11114;-44
2022/03/24 07:15:08;;;;;;;;;5.00;5.00;15.10;99.90;;;;;;5071446;28;11614;-46
2022/03/24 07:17:38;;;;;;;;;5.00;4.50;15.10;99.90;;;;;;5081514;28;11046;-44
2022/03/24 07:20:08;;;;;;;;;4.00;2.50;15.10;99.90;;;;;;5079137;28;11680;-45
2022/03/24 07:22:39;;;;;;;;;4.75;4.75;15.10;99.90;;;;;;5074072;28;10901;-45
2022/03/24 07:25:11;;;;;;;;;2.75;2.75;15.10;99.90;;;;;;5075370;28;11534;-42
2022/03/24 07:27:42;;;;;;;;;4.75;4.75;15.00;99.90;;;;;;5072305;28;11187;-47
2022/03/24 07:30:12;;;;;;;;;3.00;3.00;15.00;99.90;;;;;;5076205;28;11752;-46
2022/03/24 07:32:43;;;;;;;;;2.00;2.00;14.90;99.90;;;;;;5072391;28;10936;-43
2022/03/24 07:35:18;;;;;;;;;5.25;4.25;15.00;99.90;;;;;;5067827;28;11295;-48
2022/03/24 07:37:48;;;;;;;;;5.00;5.00;14.90;99.90;;;;;;5079039;28;11567;-44
2022/03/24 07:40:21;;;;;;;;;4.00;3.00;14.90;99.90;;;;;;5074094;28;11160;-48
2022/03/24 07:42:56;;;;;;;;;3.00;3.00;14.90;99.90;;;;;;5071292;28;10873;-46
2022/03/24 07:45:26;;;;;;;;;2.00;2.00;14.90;99.90;;;;;;5077098;28;11479;-44
2022/03/24 07:48:25;;;;;;;;;5.00;3.75;14.80;99.90;;;;;;5070657;28;11096;-43
2022/03/24 07:50:57;;;;;;;;;4.50;4.50;14.70;99.90;;;;;;5080121;28;11224;-47
2022/03/24 07:53:40;;;;;;;;;6.25;4.50;14.70;99.90;;;;;;5083264;28;11122;-43
2022/03/24 07:56:11;;;;;;;;;4.00;4.00;14.70;99.90;;;;;;5066461;28;11460;-45
2022/03/24 07:58:41;;;;;;;;;3.25;3.00;14.70;99.90;;;;;;5068871;28;11630;-44
2022/03/24 08:01:13;;;;;;;;;7.75;6.00;14.60;99.90;;;;;;5072666;28;11151;-43
2022/03/24 08:03:44;;;;;;;;;3.00;3.00;14.60;99.90;;;;;;5076304;28;11559;-44
2022/03/24 08:06:20;;;;;;;;;5.00;5.00;14.60;99.90;;;;;;5070597;28;11202;-45
2022/03/24 08:08:51;;;;;;;;;2.75;2.75;14.60;99.90;;;;;;5073965;28;11431;-45
2022/03/24 08:11:25;;;;;;;;;4.25;3.00;14.60;99.90;;;;;;5074449;28;11452;-45
2022/03/24 08:13:57;;;;;;;;;5.25;4.00;14.50;99.90;;;;;;5073015;28;11098;-44
2022/03/24 08:16:27;;;;;;;;;8.50;5.75;14.50;99.90;;;;;;5068259;28;11893;-45
2022/03/24 08:18:58;;;;;;;;;7.00;7.00;14.50;99.90;;;;;;5072282;28;11213;-47
2022/03/24 08:21:30;;;;;;;;;3.75;3.75;14.40;99.90;;;;;;5083481;28;11432;-47
2022/03/24 08:24:02;;;;;;;;;6.25;5.00;14.40;99.90;;;;;;5075218;28;11236;-43
2022/03/24 08:26:33;;;;;;;;;3.50;3.00;14.40;99.90;;;;;;5079264;28;12401;-44
2022/03/24 08:29:06;;;;;;;;;2.75;2.75;14.40;99.90;;;;;;5070277;28;12169;-44
2022/03/24 08:31:36;;;;;;;;;5.75;5.75;14.30;99.90;;;;;;5074951;28;11883;-42
2022/03/24 08:34:07;;;;;;;;;5.50;5.50;14.40;99.90;;;;;;5078620;28;11064;-45
2022/03/24 08:36:37;;;;;;;;;4.00;4.00;14.30;99.90;;;;;;5080409;28;11436;-46
2022/03/24 08:39:07;;;;;;;;;5.25;5.25;14.30;99.90;;;;;;5072931;28;11479;-45
2022/03/24 08:41:37;;;;;;;;;4.50;4.50;14.20;99.90;;;;;;5068000;28;11624;-45
2022/03/24 08:44:11;;;;;;;;;4.00;4.00;14.20;99.90;;;;;;5069169;28;11222;-44
2022/03/24 08:46:42;;;;;;;;;2.25;2.25;14.20;99.90;;;;;;5079615;28;11455;-46
2022/03/24 08:49:12;;;;;;;;;5.00;5.00;14.30;99.90;;;;;;5071289;28;11448;-43
2022/03/24 08:51:42;;;;;;;;;6.50;5.25;14.30;99.90;;;;;;5074857;28;11468;-44
2022/03/24 08:54:13;;;;;;;;;7.00;5.50;14.30;99.90;;;;;;5076763;28;11471;-46
2022/03/24 08:56:43;;;;;;;;;5.00;4.00;14.20;99.90;;;;;;5072578;28;11551;-46
2022/03/24 08:59:13;;;;;;;;;3.25;3.25;14.10;99.90;;;;;;5077894;28;11545;-45
2022/03/24 09:01:45;;;;;;;;;5.00;4.00;14.10;99.90;;;;;;5076573;28;11466;-43
2022/03/24 09:04:18;;;;;;;;;5.00;4.00;14.10;99.90;;;;;;5069458;28;11471;-43
2022/03/24 09:06:49;;;;;;;;;2.25;1.25;14.10;99.90;;;;;;5073061;28;11382;-43
2022/03/24 09:09:22;;;;;;;;;4.00;4.00;14.10;99.90;;;;;;5077167;28;11403;-44
2022/03/24 09:11:53;;;;;;;;;4.50;4.00;14.10;99.90;;;;;;5079936;28;11486;-45
2022/03/24 09:14:23;;;;;;;;;2.25;2.25;14.00;99.90;;;;;;5084981;28;11477;-42
2022/03/24 09:16:53;;;;;;;;;4.75;4.75;14.00;99.90;;;;;;5075429;28;11469;-43
2022/03/24 09:19:23;;;;;;;;;3.75;3.75;14.00;99.90;;;;;;5081351;28;11474;-44
2022/03/24 09:21:54;;;;;;;;;3.25;3.25;13.90;99.90;;;;;;5086410;28;12162;-43
2022/03/24 09:24:24;;;;;;;;;3.50;3.50;13.90;99.90;;;;;;5073304;28;12199;-45
2022/03/24 09:26:55;;;;;;;;;2.75;2.75;13.80;99.90;;;;;;5071796;28;11480;-46
2022/03/24 09:29:25;;;;;;;;;4.00;4.00;13.80;99.90;;;;;;5074703;28;11472;-45
2022/03/24 09:31:57;;;;;;;;;1.00;1.00;13.70;99.90;;;;;;5078691;28;12169;-43
2022/03/24 09:34:27;;;;;;;;;4.00;4.00;13.70;99.90;;;;;;5067909;28;11887;-48
2022/03/24 09:36:58;;;;;;;;;4.50;4.50;13.80;99.90;;;;;;5067708;28;11494;-44
2022/03/24 09:39:28;;;;;;;;;3.00;3.00;13.80;99.90;;;;;;5069607;28;12130;-45
2022/03/24 09:42:00;;;;;;;;;5.00;3.25;13.70;99.90;;;;;;5079693;28;11585;-45
2022/03/24 09:44:29;;;;;;;;;4.00;4.00;13.70;99.90;;;;;;5073044;28;11475;-45
2022/03/24 09:47:00;;;;;;;;;5.50;4.00;13.70;99.90;;;;;;5074139;28;11424;-44
2022/03/24 09:49:32;;;;;;;;;2.00;2.00;13.70;99.90;;;;;;5070700;28;11563;-46
2022/03/24 09:52:02;;;;;;;;;4.25;4.25;13.60;99.90;;;;;;5070388;28;11430;-47
2022/03/24 09:54:32;;;;;;;;;7.75;5.00;13.70;99.90;;;;;;5072169;28;11493;-48
2022/03/24 09:57:07;;;;;;;;;3.00;1.00;13.60;99.90;;;;;;5067765;28;11538;-45
2022/03/24 09:59:37;;;;;;;;;3.00;3.00;13.60;99.90;;;;;;5080905;28;11421;-43
2022/03/24 10:02:08;;;;;;;;;3.00;3.00;13.60;99.90;;;;;;5069218;28;11648;-48
2022/03/24 10:04:47;;;;;;;;;3.25;3.25;13.50;99.90;;;;;;5073821;28;11491;-44
2022/03/24 10:07:19;;;;;;;;;4.00;3.00;13.50;99.90;;;;;;5079848;27;11492;-47
2022/03/24 10:09:51;;;;;;;;;2.50;2.50;13.50;99.90;;;;;;5078144;27;11448;-43
2022/03/24 10:12:23;;;;;;;;;3.50;2.25;13.50;99.90;;;;;;5073823;28;11509;-44
2022/03/24 10:15:05;;;;;;;;;4.25;4.25;13.40;99.90;;;;;;5072182;28;12350;-44
2022/03/24 10:17:37;;;;;;;;;3.75;3.75;13.40;99.90;;;;;;5075650;28;11562;-46
2022/03/24 10:20:15;;;;;;;;;2.75;2.75;13.40;99.90;;;;;;5071627;27;11427;-44
2022/03/24 10:23:05;;;;;;;;;3.00;3.00;13.40;99.90;;;;;;5076611;28;12229;-45
2022/03/24 10:25:39;;;;;;;;;4.50;3.00;13.40;99.90;;;;;;5073634;28;11486;-45
2022/03/24 10:28:17;;;;;;;;;3.25;2.00;13.40;99.90;;;;;;5080964;28;11593;-45
2022/03/24 10:30:57;;;;;;;;;4.00;3.00;13.30;99.90;;;;;;5080719;28;11430;-42
2022/03/24 10:33:30;;;;;;;;;3.75;2.75;13.20;99.90;;;;;;5073310;28;11519;-45
2022/03/24 10:36:15;;;;;;;;;4.00;4.00;13.20;99.90;;;;;;5077190;28;11448;-44
2022/03/24 10:38:50;;;;;;;;;3.00;3.00;13.10;99.90;;;;;;5070060;28;11522;-43
2022/03/24 10:41:32;;;;;;;;;2.25;2.25;13.10;99.90;;;;;;5084377;28;11451;-43
2022/03/24 10:44:12;;;;;;;;;2.50;2.00;13.00;99.90;;;;;;5077231;28;11603;-43
2022/03/24 10:46:43;;;;;;;;;3.25;3.25;13.10;99.90;;;;;;5076807;28;11469;-45
2022/03/24 10:49:21;;;;;;;;;2.00;2.00;13.10;99.90;;;;;;5071482;28;11436;-44
2022/03/24 10:51:58;;;;;;;;;2.25;2.25;13.10;99.90;;;;;;5076799;28;11650;-43
2022/03/24 10:54:49;;;;;;;;;1.75;1.75;13.10;99.90;;;;;;5072216;28;13519;-43
2022/03/24 10:57:23;;;;;;;;;4.00;2.75;13.00;99.90;;;;;;5075377;28;11483;-43
2022/03/24 10:59:58;;;;;;;;;3.25;3.25;13.00;99.90;;;;;;5070443;28;11483;-44
2022/03/24 11:02:30;;;;;;;;;3.00;3.00;13.00;99.90;;;;;;5077077;28;11502;-44
2022/03/24 11:05:01;;;;;;;;;2.00;2.00;13.00;99.90;;;;;;5069233;28;11538;-47
2022/03/24 11:07:31;;;;;;;;;1.75;1.75;13.00;99.90;;;;;;5077235;28;11424;-48
2022/03/24 11:10:15;;;;;;;;;4.00;2.25;12.90;99.90;;;;;;5068974;28;11547;-48
2022/03/24 11:12:46;;;;;;;;;4.00;2.00;12.90;99.90;;;;;;5080679;28;11502;-43
2022/03/24 11:15:16;;;;;;;;;2.50;2.50;12.90;99.90;;;;;;5066664;28;11511;-46
2022/03/24 11:17:47;;;;;;;;;2.00;1.00;12.90;99.90;;;;;;5073417;28;12221;-45
2022/03/24 11:20:37;;;;;;;;;2.50;2.50;12.80;99.90;;;;;;5073218;28;11451;-43
2022/03/24 11:23:23;;;;;;;;;2.00;2.00;12.80;99.90;;;;;;5074172;27;11572;-43
2022/03/24 11:25:59;;;;;;;;;4.25;3.00;12.80;99.90;;;;;;5081672;28;11445;-44
2022/03/24 11:28:36;;;;;;;;;4.75;1.50;12.80;99.90;;;;;;5077648;28;11519;-44
2022/03/24 11:31:09;;;;;;;;;2.25;2.25;12.70;99.90;;;;;;5081741;28;12140;-44
2022/03/24 11:33:58;;;;;;;;;2.00;2.00;12.70;99.90;;;;;;5072866;28;11533;-43
2022/03/24 11:36:30;;;;;;;;;3.50;3.00;12.70;99.90;;;;;;5071283;28;12299;-43
2022/03/24 11:39:11;;;;;;;;;3.00;3.00;12.70;99.90;;;;;;5076394;28;11549;-44
2022/03/24 11:41:50;;;;;;;;;4.50;4.50;12.70;99.90;;;;;;5079316;28;11520;-46
2022/03/24 11:44:48;;;;;;;;;3.75;2.00;12.60;99.90;;;;;;5072283;28;11499;-44
2022/03/24 11:47:22;;;;;;;;;2.75;2.75;12.50;99.90;;;;;;5070247;28;11493;-43
2022/03/24 11:50:07;;;;;;;;;3.50;3.50;12.50;99.90;;;;;;5072440;28;12224;-43
2022/03/24 11:52:38;;;;;;;;;2.00;2.00;12.50;99.90;;;;;;5074788;28;11604;-44
2022/03/24 11:55:17;;;;;;;;;3.75;3.75;12.40;99.90;;;;;;5082585;28;11470;-44
2022/03/24 11:58:01;;;;;;;;;1.75;1.75;12.40;99.90;;;;;;5076840;28;11490;-45
2022/03/24 12:00:37;;;;;;;;;3.00;3.00;12.50;99.90;;;;;;5079273;28;11512;-44
2022/03/24 12:03:43;;;;;;;;;3.00;3.00;12.50;99.90;;;;;;5072087;28;11499;-46
2022/03/24 12:06:18;;;;;;;;;4.75;3.25;12.50;99.90;;;;;;5077842;28;11650;-43
2022/03/24 12:09:01;;;;;;;;;5.00;5.00;12.40;99.90;;;;;;5073727;28;12012;-44
2022/03/24 12:11:35;;;;;;;;;4.00;4.00;12.40;99.90;;;;;;5072423;28;11556;-44
2022/03/24 12:14:30;;;;;;;;;5.00;4.00;12.30;99.90;;;;;;5083503;28;11685;-44
2022/03/24 12:17:38;;;;;;;;;4.00;4.00;12.30;99.90;;;;;;5071263;28;11546;-44
2022/03/24 12:20:46;;;;;;;;;3.25;3.00;12.20;99.90;;;;;;5072623;28;11519;-44
2022/03/24 12:23:17;;;;;;;;;2.00;2.00;12.20;99.90;;;;;;5062366;28;11493;-44
2022/03/24 12:26:13;;;;;;;;;5.00;3.25;12.20;99.90;;;;;;5073456;28;11533;-44
2022/03/24 12:28:43;;;;;;;;;2.25;2.25;12.20;99.90;;;;;;5084268;28;12330;-44
2022/03/24 12:31:18;;;;;;;;;1.25;1.25;12.10;99.90;;;;;;5075187;28;11500;-44
2022/03/24 12:33:49;;;;;;;;;1.25;1.25;12.10;99.90;;;;;;5073234;28;11527;-46
2022/03/24 12:36:39;;;;;;;;;1.25;1.25;12.10;99.90;;;;;;5071468;28;11509;-45
2022/03/24 12:39:10;;;;;;;;;1.00;1.00;12.10;99.90;;;;;;5071845;28;11491;-45
2022/03/24 12:42:11;;;;;;;;;3.00;2.00;12.20;99.90;;;;;;5072366;28;11553;-42
2022/03/24 12:45:07;;;;;;;;;3.00;3.00;12.10;99.90;;;;;;5071822;28;11525;-44
2022/03/24 12:47:43;;;;;;;;;5.00;2.00;12.10;99.90;;;;;;5072546;28;11504;-46
2022/03/24 12:50:22;;;;;;;;;2.00;2.00;12.00;99.90;;;;;;5071219;28;11506;-43
2022/03/24 12:53:02;;;;;;;;;1.25;1.25;12.00;99.90;;;;;;5070321;28;11482;-44
2022/03/24 12:55:45;;;;;;;;;3.00;1.00;12.00;99.90;;;;;;5069715;28;11529;-43
2022/03/24 12:58:17;;;;;;;;;1.00;1.00;12.00;99.90;;;;;;5078133;28;11445;-45
2022/03/24 13:00:49;;;;;;;;;2.25;2.25;12.00;99.90;;;;;;5073165;28;11492;-42
2022/03/24 13:03:19;;;;;;;;;3.25;3.00;12.00;99.90;;;;;;5079981;28;11520;-46
2022/03/24 13:05:54;;;;;;;;;5.75;4.00;12.00;99.90;;;;;;5081679;28;11637;-43
2022/03/24 13:08:25;;;;;;;;;7.25;5.50;12.00;99.90;;;;;;5065547;28;11501;-42
2022/03/24 13:11:01;;;;;;;;;8.75;5.25;11.90;99.90;;;;;;5073989;28;11549;-47
2022/03/24 13:13:31;;;;;;;;;5.00;5.00;11.90;99.90;;;;;;5077418;28;11473;-44
2022/03/24 13:16:02;;;;;;;;;3.50;3.50;11.90;99.90;;;;;;5079021;28;11517;-42
2022/03/24 13:18:32;;;;;;;;;6.00;6.00;11.80;99.90;;;;;;5072937;28;11494;-43
2022/03/24 13:21:02;;;;;;;;;5.50;5.50;11.80;99.90;;;;;;5069795;28;11659;-45